createdAt,value
2023-11-26T00:00:36.533Z,100929.47
2023-11-26T00:03:05.345Z,100933.59
2023-11-26T00:05:31.817Z,100918.53
2023-11-26T00:07:58.241Z,100928.53
2023-11-26T00:10:24.696Z,100926.09
2023-11-26T00:12:51.086Z,100924.13
2023-11-26T00:15:17.468Z,100933.63
2023-11-26T00:17:44.479Z,100926.63
2023-11-26T00:20:11.236Z,100930.41
2023-11-26T00:22:37.669Z,100919.84
2023-11-26T00:25:04.345Z,100920.59
2023-11-26T00:27:30.748Z,100919.31
2023-11-26T00:29:57.264Z,100923.00
2023-11-26T00:32:23.949Z,100919.56
2023-11-26T00:34:50.507Z,100923.09
2023-11-26T00:37:17.020Z,100927.97
2023-11-26T00:39:44.021Z,100928.78
2023-11-26T00:42:10.440Z,100922.59
2023-11-26T00:44:36.809Z,100935.22
2023-11-26T00:47:03.321Z,100940.19
2023-11-26T00:49:29.749Z,100943.69
2023-11-26T00:51:56.304Z,100943.22
2023-11-26T00:54:22.648Z,100950.72
2023-11-26T00:56:51.092Z,100940.03
2023-11-26T00:59:17.493Z,100939.22
2023-11-26T01:01:44.082Z,100954.38
2023-11-26T01:04:10.537Z,100946.81
2023-11-26T01:06:39.206Z,100948.25
2023-11-26T01:09:05.670Z,100947.88
2023-11-26T01:11:32.444Z,100957.91
2023-11-26T01:13:59.016Z,100961.06
2023-11-26T01:16:25.424Z,100954.78
2023-11-26T01:18:52.104Z,100954.19
2023-11-26T01:21:19.135Z,100961.81
2023-11-26T01:23:46.783Z,100960.28
2023-11-26T01:26:13.483Z,100962.97
2023-11-26T01:28:39.903Z,100971.63
2023-11-26T01:31:10.396Z,100971.13
2023-11-26T01:33:36.917Z,100979.94
2023-11-26T01:36:07.429Z,100979.19
2023-11-26T01:38:33.870Z,100965.59
2023-11-26T01:41:00.330Z,100972.88
2023-11-26T01:43:27.676Z,100967.84
2023-11-26T01:46:09.057Z,100963.44
2023-11-26T01:48:36.884Z,100969.22
2023-11-26T01:51:05.223Z,100966.81
2023-11-26T01:53:32.894Z,100952.69
2023-11-26T01:56:01.153Z,100958.69
2023-11-26T01:58:31.478Z,100960.22
2023-11-26T02:00:58.944Z,100959.72
2023-11-26T02:03:25.520Z,100961.16
2023-11-26T02:05:53.106Z,100959.03
2023-11-26T02:08:21.631Z,100961.88
2023-11-26T02:10:48.121Z,100970.34
2023-11-26T02:13:15.093Z,100973.91
2023-11-26T02:15:41.520Z,100970.53
2023-11-26T02:18:08.309Z,100971.88
2023-11-26T02:20:34.845Z,100981.56
2023-11-26T02:23:01.253Z,100982.78
2023-11-26T02:25:31.421Z,100978.00
2023-11-26T02:28:00.266Z,100974.41
2023-11-26T02:30:28.838Z,100975.81
2023-11-26T02:32:55.312Z,100979.34
2023-11-26T02:35:22.007Z,100980.97
2023-11-26T02:37:48.693Z,100976.59
2023-11-26T02:40:16.531Z,100976.59
2023-11-26T02:42:44.633Z,100975.09
2023-11-26T02:45:11.507Z,100986.72
2023-11-26T02:47:38.331Z,100976.03
2023-11-26T02:50:05.792Z,100982.78
2023-11-26T02:52:32.233Z,100970.63
2023-11-26T02:54:58.632Z,100970.59
2023-11-26T02:57:25.508Z,100983.16
2023-11-26T02:59:51.942Z,100987.81
2023-11-26T03:02:19.283Z,100979.63
2023-11-26T03:04:54.117Z,100994.44
2023-11-26T03:07:22.997Z,100996.38
2023-11-26T03:10:08.093Z,100994.25
2023-11-26T03:12:53.133Z,100989.44
2023-11-26T03:15:19.722Z,101003.63
2023-11-26T03:17:46.215Z,101002.25
2023-11-26T03:20:17.529Z,101011.38
2023-11-26T03:22:43.975Z,101005.50
2023-11-26T03:25:10.323Z,101006.38
2023-11-26T03:27:36.830Z,101007.50
2023-11-26T03:30:03.483Z,101004.72
2023-11-26T03:32:29.978Z,101006.75
2023-11-26T03:34:56.541Z,101004.28
2023-11-26T03:37:23.453Z,101001.72
2023-11-26T03:39:49.948Z,101000.75
2023-11-26T03:42:23.170Z,101008.94
2023-11-26T03:44:56.000Z,101003.72
2023-11-26T03:47:22.459Z,101005.03
2023-11-26T03:49:50.127Z,101002.78
2023-11-26T03:52:16.518Z,101008.59
2023-11-26T03:54:42.915Z,101005.31
2023-11-26T03:57:11.447Z,101011.69
2023-11-26T03:59:38.126Z,101009.88
2023-11-26T04:02:04.800Z,101017.97
2023-11-26T04:04:31.251Z,101012.56
2023-11-26T04:06:59.255Z,101008.56
2023-11-26T04:09:26.863Z,101010.75
2023-11-26T04:11:57.747Z,101020.75
2023-11-26T04:14:24.845Z,101014.00
2023-11-26T04:16:51.237Z,101011.88
2023-11-26T04:19:18.173Z,101009.78
2023-11-26T04:21:46.094Z,101019.84
2023-11-26T04:24:13.668Z,101016.75
2023-11-26T04:26:46.308Z,101018.47
2023-11-26T04:29:13.705Z,101028.03
2023-11-26T04:31:40.116Z,101021.84
2023-11-26T04:34:06.776Z,101016.00
2023-11-26T04:36:33.143Z,101015.84
2023-11-26T04:39:00.220Z,101020.34
2023-11-26T04:41:27.580Z,101017.97
2023-11-26T04:43:54.716Z,101016.75
2023-11-26T04:46:21.315Z,101013.75
2023-11-26T04:48:48.006Z,101008.28
2023-11-26T04:51:14.443Z,101003.97
2023-11-26T04:53:40.794Z,101009.22
2023-11-26T04:56:07.659Z,101006.69
2023-11-26T04:58:34.046Z,101013.28
2023-11-26T05:01:00.442Z,101014.25
2023-11-26T05:03:26.914Z,101021.72
2023-11-26T05:05:53.592Z,101018.09
2023-11-26T05:08:20.002Z,101023.50
2023-11-26T05:10:46.454Z,101014.06
2023-11-26T05:13:13.408Z,101023.50
2023-11-26T05:15:39.748Z,101020.09
2023-11-26T05:18:06.338Z,101020.22
2023-11-26T05:20:32.816Z,101023.13
2023-11-26T05:22:59.367Z,101017.06
2023-11-26T05:25:25.757Z,101013.13
2023-11-26T05:27:52.170Z,101027.38
2023-11-26T05:30:19.361Z,101024.88
2023-11-26T05:32:45.760Z,101039.22
2023-11-26T05:35:15.300Z,101034.94
2023-11-26T05:37:42.139Z,101033.31
2023-11-26T05:40:13.121Z,101035.25
2023-11-26T05:42:39.769Z,101035.25
2023-11-26T05:45:06.434Z,101032.91
2023-11-26T05:47:33.098Z,101035.09
2023-11-26T05:50:00.353Z,101024.81
2023-11-26T05:52:27.759Z,101029.84
2023-11-26T05:54:54.104Z,101030.44
2023-11-26T05:57:21.552Z,101015.22
2023-11-26T05:59:48.000Z,101029.50
2023-11-26T06:02:14.424Z,101024.59
2023-11-26T06:04:40.822Z,101032.16
2023-11-26T06:07:07.213Z,101031.06
2023-11-26T06:09:33.654Z,101037.75
2023-11-26T06:12:00.037Z,101025.91
2023-11-26T06:14:26.504Z,101022.59
2023-11-26T06:16:52.866Z,101022.91
2023-11-26T06:19:19.235Z,101025.03
2023-11-26T06:21:45.819Z,101021.28
2023-11-26T06:24:12.867Z,101011.03
2023-11-26T06:26:39.369Z,101005.09
2023-11-26T06:29:06.708Z,101020.81
2023-11-26T06:31:33.433Z,101022.06
2023-11-26T06:33:59.798Z,101023.47
2023-11-26T06:36:26.644Z,101018.75
2023-11-26T06:38:54.057Z,101032.13
2023-11-26T06:41:22.701Z,101043.28
2023-11-26T06:43:49.091Z,101040.31
2023-11-26T06:46:19.632Z,101030.38
2023-11-26T06:48:46.057Z,101030.22
2023-11-26T06:51:13.691Z,101036.91
2023-11-26T06:53:40.388Z,101039.03
2023-11-26T06:56:07.900Z,101025.69
2023-11-26T06:58:38.113Z,101030.31
2023-11-26T07:01:06.194Z,101030.16
2023-11-26T07:03:36.198Z,101039.13
2023-11-26T07:06:05.786Z,101041.50
2023-11-26T07:08:35.032Z,101032.63
2023-11-26T07:11:01.561Z,101028.13
2023-11-26T07:13:27.888Z,101027.19
2023-11-26T07:15:54.316Z,101024.06
2023-11-26T07:18:20.705Z,101034.50
2023-11-26T07:20:47.934Z,101030.28
2023-11-26T07:23:14.818Z,101019.91
2023-11-26T07:25:41.244Z,101034.63
2023-11-26T07:28:12.390Z,101029.13
2023-11-26T07:30:39.262Z,101037.75
2023-11-26T07:33:05.994Z,101038.53
2023-11-26T07:35:32.503Z,101043.72
2023-11-26T07:37:58.876Z,101047.53
2023-11-26T07:40:25.230Z,101047.38
2023-11-26T07:42:51.683Z,101049.72
2023-11-26T07:45:18.136Z,101045.78
2023-11-26T07:47:44.523Z,101038.72
2023-11-26T07:50:10.898Z,101040.72
2023-11-26T07:52:37.961Z,101034.38
2023-11-26T07:55:06.334Z,101031.00
2023-11-26T07:57:33.477Z,101031.22
2023-11-26T08:00:01.011Z,101037.88
2023-11-26T08:02:30.677Z,101036.66
2023-11-26T08:04:58.251Z,101033.19
2023-11-26T08:07:25.506Z,101032.75
2023-11-26T08:09:52.437Z,101031.28
2023-11-26T08:12:24.332Z,101031.56
2023-11-26T08:14:53.795Z,101034.22
2023-11-26T08:17:20.721Z,101025.25
2023-11-26T08:19:47.093Z,101025.41
2023-11-26T08:22:13.678Z,101035.69
2023-11-26T08:24:43.565Z,101024.53
2023-11-26T08:27:11.288Z,101033.03
2023-11-26T08:29:37.972Z,101021.28
2023-11-26T08:32:08.654Z,101027.06
2023-11-26T08:34:42.600Z,101025.66
2023-11-26T08:37:16.015Z,101032.00
2023-11-26T08:39:47.334Z,101020.66
2023-11-26T08:42:15.571Z,101024.94
2023-11-26T08:44:46.212Z,101019.78
2023-11-26T08:47:13.004Z,101019.94
2023-11-26T08:49:39.347Z,101017.88
2023-11-26T08:52:05.992Z,101019.19
2023-11-26T08:54:32.435Z,101022.00
2023-11-26T08:56:58.795Z,101024.81
2023-11-26T08:59:25.138Z,101026.28
2023-11-26T09:01:51.632Z,101006.81
2023-11-26T09:04:18.134Z,101015.50
2023-11-26T09:06:44.734Z,101016.38
2023-11-26T09:09:11.558Z,101011.38
2023-11-26T09:11:37.940Z,101023.22
2023-11-26T09:14:04.365Z,101010.41
2023-11-26T09:16:37.450Z,101026.16
2023-11-26T09:19:04.793Z,101026.25
2023-11-26T09:21:31.749Z,101027.69
2023-11-26T09:24:01.344Z,101023.81
2023-11-26T09:26:28.571Z,101024.78
2023-11-26T09:28:57.818Z,101015.59
2023-11-26T09:31:24.890Z,101023.78
2023-11-26T09:33:51.450Z,101020.66
2023-11-26T09:36:17.922Z,101016.16
2023-11-26T09:38:45.396Z,101010.25
2023-11-26T09:41:18.955Z,101028.09
2023-11-26T09:43:45.516Z,101018.44
2023-11-26T09:46:12.084Z,101021.66
2023-11-26T09:48:38.555Z,101014.44
2023-11-26T09:51:06.047Z,101021.44
2023-11-26T09:53:32.740Z,101026.53
2023-11-26T09:55:59.122Z,101025.59
2023-11-26T09:58:25.485Z,101034.06
2023-11-26T10:00:51.987Z,101031.88
2023-11-26T10:03:18.729Z,101036.25
2023-11-26T10:05:45.617Z,101028.28
2023-11-26T10:08:29.209Z,101031.00
2023-11-26T10:10:56.658Z,101033.53
2023-11-26T10:13:23.066Z,101035.84
2023-11-26T10:15:49.743Z,101031.19
2023-11-26T10:18:18.547Z,101029.31
2023-11-26T10:20:51.109Z,101019.59
2023-11-26T10:23:25.874Z,101024.13
2023-11-26T10:25:52.236Z,101018.13
2023-11-26T10:28:18.653Z,101015.66
2023-11-26T10:30:45.250Z,101006.72
2023-11-26T10:33:13.341Z,101006.72
2023-11-26T10:35:48.491Z,101010.41
2023-11-26T10:38:15.574Z,101001.50
2023-11-26T10:40:43.661Z,101001.84
2023-11-26T10:43:10.657Z,100990.69
2023-11-26T10:45:38.721Z,100978.88
2023-11-26T10:48:18.128Z,100983.50
2023-11-26T10:50:52.144Z,100979.25
2023-11-26T10:53:23.995Z,100985.72
2023-11-26T10:55:53.193Z,100974.72
2023-11-26T10:58:20.769Z,100967.47
2023-11-26T11:00:50.303Z,100969.00
2023-11-26T11:03:18.354Z,100975.72
2023-11-26T11:05:48.255Z,100976.28
2023-11-26T11:08:16.765Z,100968.13
2023-11-26T11:11:10.924Z,100970.78
2023-11-26T11:13:37.744Z,100966.59
2023-11-26T11:16:04.753Z,100964.34
2023-11-26T11:18:34.092Z,100960.44
2023-11-26T11:21:11.664Z,100966.19
2023-11-26T11:23:41.082Z,100962.56
2023-11-26T11:26:09.275Z,100959.50
2023-11-26T11:28:41.801Z,100963.81
2023-11-26T11:31:10.436Z,100956.25
2023-11-26T11:33:37.172Z,100964.94
2023-11-26T11:36:06.389Z,100967.47
2023-11-26T11:39:03.131Z,100969.06
2023-11-26T11:41:31.172Z,100961.69
2023-11-26T11:44:27.303Z,100961.78
2023-11-26T11:46:53.723Z,100963.94
2023-11-26T11:49:20.918Z,100956.66
2023-11-26T11:51:47.481Z,100960.72
2023-11-26T11:54:39.115Z,100964.28
2023-11-26T11:57:16.307Z,100955.91
2023-11-26T11:59:44.483Z,100954.34
2023-11-26T12:02:11.942Z,100956.78
2023-11-26T12:04:43.322Z,100958.44
2023-11-26T12:07:11.976Z,100958.75
2023-11-26T12:09:39.855Z,100960.75
2023-11-26T12:12:07.698Z,100953.16
2023-11-26T12:14:34.226Z,100945.47
2023-11-26T12:17:07.544Z,100945.66
2023-11-26T12:19:38.558Z,100946.38
2023-11-26T12:22:05.446Z,100934.53
2023-11-26T12:24:32.580Z,100937.75
2023-11-26T12:26:59.172Z,100946.72
2023-11-26T12:29:33.234Z,100947.38
2023-11-26T12:32:09.978Z,100948.91
2023-11-26T12:34:40.610Z,100944.66
2023-11-26T12:37:08.764Z,100940.81
2023-11-26T12:39:36.647Z,100941.81
2023-11-26T12:42:03.337Z,100935.91
2023-11-26T12:44:31.746Z,100939.56
2023-11-26T12:47:10.637Z,100943.91
2023-11-26T12:49:38.563Z,100933.56
2023-11-26T12:52:05.706Z,100924.75
2023-11-26T12:54:32.376Z,100928.91
2023-11-26T12:56:58.781Z,100930.31
2023-11-26T12:59:25.305Z,100932.31
2023-11-26T13:01:52.278Z,100932.06
2023-11-26T13:04:28.666Z,100921.03
2023-11-26T13:06:56.611Z,100924.44
2023-11-26T13:09:23.631Z,100918.50
2023-11-26T13:11:50.226Z,100922.69
2023-11-26T13:14:21.473Z,100915.16
2023-11-26T13:16:50.117Z,100919.06
2023-11-26T13:19:16.654Z,100926.53
2023-11-26T13:21:48.408Z,100917.69
2023-11-26T13:24:15.468Z,100916.81
2023-11-26T13:26:42.074Z,100911.94
2023-11-26T13:29:08.755Z,100910.66
2023-11-26T13:31:35.176Z,100907.03
2023-11-26T13:34:01.868Z,100905.16
2023-11-26T13:36:28.306Z,100904.53
2023-11-26T13:38:54.708Z,100909.25
2023-11-26T13:41:21.842Z,100911.19
2023-11-26T13:43:48.230Z,100901.38
2023-11-26T13:46:14.723Z,100904.56
2023-11-26T13:48:42.346Z,100904.50
2023-11-26T13:51:12.060Z,100884.91
2023-11-26T13:53:39.779Z,100894.72
2023-11-26T13:56:06.601Z,100887.94
2023-11-26T13:58:33.774Z,100893.84
2023-11-26T14:01:00.404Z,100889.75
2023-11-26T14:03:26.949Z,100894.47
2023-11-26T14:05:54.416Z,100896.84
2023-11-26T14:08:25.485Z,100900.03
2023-11-26T14:10:51.938Z,100886.88
2023-11-26T14:13:19.205Z,100887.94
2023-11-26T14:15:46.012Z,100901.94
2023-11-26T14:18:13.318Z,100893.63
2023-11-26T14:20:40.015Z,100896.69
2023-11-26T14:23:08.395Z,100896.41
2023-11-26T14:25:35.137Z,100902.75
2023-11-26T14:28:02.080Z,100895.75
2023-11-26T14:30:28.552Z,100897.69
2023-11-26T14:32:55.041Z,100905.34
2023-11-26T14:35:21.579Z,100900.25
2023-11-26T14:37:47.986Z,100880.03
2023-11-26T14:40:14.676Z,100882.47
2023-11-26T14:42:43.122Z,100874.59
2023-11-26T14:45:10.903Z,100872.16
2023-11-26T14:47:37.671Z,100876.75
2023-11-26T14:50:05.272Z,100875.88
2023-11-26T14:52:35.271Z,100880.28
2023-11-26T14:55:02.718Z,100878.13
2023-11-26T14:57:29.282Z,100875.69
2023-11-26T14:59:56.130Z,100864.50
2023-11-26T15:02:22.968Z,100874.78
2023-11-26T15:04:50.596Z,100870.06
2023-11-26T15:07:17.586Z,100871.84
2023-11-26T15:09:46.392Z,100870.34
2023-11-26T15:12:13.718Z,100874.69
2023-11-26T15:14:40.965Z,100873.28
2023-11-26T15:17:07.558Z,100889.44
2023-11-26T15:19:34.332Z,100878.28
2023-11-26T15:22:07.288Z,100881.69
2023-11-26T15:24:36.896Z,100873.13
2023-11-26T15:27:03.592Z,100877.72
2023-11-26T15:29:30.117Z,100874.16
2023-11-26T15:31:56.531Z,100882.06
2023-11-26T15:34:24.055Z,100877.72
2023-11-26T15:36:50.585Z,100874.53
2023-11-26T15:39:21.414Z,100876.22
2023-11-26T15:41:47.756Z,100886.47
2023-11-26T15:44:14.851Z,100887.47
2023-11-26T15:46:41.681Z,100879.53
2023-11-26T15:49:08.455Z,100872.22
2023-11-26T15:51:34.848Z,100877.06
2023-11-26T15:54:03.546Z,100863.84
2023-11-26T15:56:31.940Z,100871.78
2023-11-26T15:58:58.560Z,100872.44
2023-11-26T16:01:25.296Z,100868.19
2023-11-26T16:03:51.986Z,100868.53
2023-11-26T16:06:18.584Z,100874.25
2023-11-26T16:08:47.265Z,100861.50
2023-11-26T16:11:13.857Z,100860.78
2023-11-26T16:13:40.628Z,100863.09
2023-11-26T16:16:08.111Z,100867.34
2023-11-26T16:18:37.447Z,100847.41
2023-11-26T16:21:04.191Z,100851.22
2023-11-26T16:23:30.674Z,100858.91
2023-11-26T16:25:57.063Z,100857.06
2023-11-26T16:28:23.543Z,100853.50
2023-11-26T16:30:49.972Z,100857.38
2023-11-26T16:33:41.336Z,100856.84
2023-11-26T16:36:08.253Z,100853.31
2023-11-26T16:38:34.583Z,100857.63
2023-11-26T16:41:00.987Z,100854.19
2023-11-26T16:43:27.398Z,100848.69
2023-11-26T16:45:56.950Z,100853.09
2023-11-26T16:48:23.286Z,100846.75
2023-11-26T16:50:49.647Z,100845.88
2023-11-26T16:53:16.055Z,100837.75
2023-11-26T16:55:42.449Z,100840.16
2023-11-26T16:58:08.924Z,100828.38
2023-11-26T17:00:35.315Z,100832.81
2023-11-26T17:03:01.717Z,100816.50
2023-11-26T17:05:28.075Z,100826.34
2023-11-26T17:07:54.442Z,100825.81
2023-11-26T17:10:20.838Z,100828.63
2023-11-26T17:12:50.287Z,100827.72
2023-11-26T17:15:18.013Z,100824.13
2023-11-26T17:17:44.416Z,100827.78
2023-11-26T17:20:11.077Z,100821.88
2023-11-26T17:22:37.425Z,100817.69
2023-11-26T17:25:04.093Z,100811.03
2023-11-26T17:27:30.490Z,100811.13
2023-11-26T17:29:57.584Z,100815.38
2023-11-26T17:32:24.365Z,100813.19
2023-11-26T17:34:50.743Z,100820.50
2023-11-26T17:37:18.290Z,100820.94
2023-11-26T17:39:44.685Z,100820.81
2023-11-26T17:42:11.045Z,100820.75
2023-11-26T17:44:37.385Z,100827.63
2023-11-26T17:47:08.364Z,100817.78
2023-11-26T17:49:36.542Z,100831.28
2023-11-26T17:52:03.038Z,100827.47
2023-11-26T17:54:29.427Z,100827.41
2023-11-26T17:56:57.324Z,100820.69
2023-11-26T17:59:23.672Z,100817.13
2023-11-26T18:01:51.550Z,100818.09
2023-11-26T18:04:18.204Z,100813.19
2023-11-26T18:06:44.995Z,100815.31
2023-11-26T18:09:11.601Z,100800.59
2023-11-26T18:11:37.952Z,100807.38
2023-11-26T18:14:06.386Z,100810.34
2023-11-26T18:16:32.979Z,100804.09
2023-11-26T18:18:59.466Z,100802.16
2023-11-26T18:21:27.197Z,100788.22
2023-11-26T18:23:53.540Z,100783.50
2023-11-26T18:26:19.882Z,100796.88
2023-11-26T18:28:46.341Z,100793.84
2023-11-26T18:31:12.817Z,100798.03
2023-11-26T18:33:39.263Z,100792.31
2023-11-26T18:36:06.046Z,100793.13
2023-11-26T18:38:32.527Z,100800.22
2023-11-26T18:40:58.922Z,100791.00
2023-11-26T18:43:25.258Z,100790.53
2023-11-26T18:45:54.747Z,100784.41
2023-11-26T18:48:21.234Z,100781.25
2023-11-26T18:50:47.930Z,100781.66
2023-11-26T18:53:14.666Z,100784.31
2023-11-26T18:55:41.066Z,100774.03
2023-11-26T18:58:07.435Z,100777.59
2023-11-26T19:00:33.815Z,100765.59
2023-11-26T19:03:02.844Z,100767.56
2023-11-26T19:05:29.238Z,100757.09
2023-11-26T19:07:55.695Z,100764.59
2023-11-26T19:10:23.490Z,100765.72
2023-11-26T19:12:50.081Z,100771.16
2023-11-26T19:15:16.956Z,100760.81
2023-11-26T19:17:43.796Z,100775.28
2023-11-26T19:20:10.947Z,100774.28
2023-11-26T19:22:37.578Z,100772.78
2023-11-26T19:25:04.592Z,100771.00
2023-11-26T19:27:32.157Z,100771.66
2023-11-26T19:29:58.692Z,100773.28
2023-11-26T19:32:25.101Z,100766.22
2023-11-26T19:34:51.760Z,100768.56
2023-11-26T19:37:21.391Z,100762.81
2023-11-26T19:39:47.880Z,100766.59
2023-11-26T19:42:14.724Z,100761.28
2023-11-26T19:44:41.222Z,100759.91
2023-11-26T19:47:08.259Z,100755.63
2023-11-26T19:49:34.812Z,100760.59
2023-11-26T19:52:02.418Z,100754.63
2023-11-26T19:54:29.219Z,100751.31
2023-11-26T19:56:55.572Z,100746.94
2023-11-26T19:59:21.944Z,100750.78
2023-11-26T20:01:48.645Z,100745.34
2023-11-26T20:04:15.189Z,100745.19
2023-11-26T20:06:44.956Z,100751.63
2023-11-26T20:09:11.318Z,100746.50
2023-11-26T20:11:37.692Z,100740.00
2023-11-26T20:14:04.102Z,100738.91
2023-11-26T20:16:30.442Z,100741.69
2023-11-26T20:18:56.814Z,100739.25
2023-11-26T20:21:23.359Z,100723.59
2023-11-26T20:23:51.249Z,100722.84
2023-11-26T20:26:21.964Z,100727.59
2023-11-26T20:28:48.718Z,100725.53
2023-11-26T20:31:15.560Z,100733.56
2023-11-26T20:33:44.981Z,100727.13
2023-11-26T20:36:19.831Z,100724.97
2023-11-26T20:38:49.751Z,100721.00
2023-11-26T20:41:16.266Z,100719.81
2023-11-26T20:43:42.775Z,100725.44
2023-11-26T20:46:09.356Z,100732.28
2023-11-26T20:48:35.917Z,100728.69
2023-11-26T20:51:02.832Z,100725.56
2023-11-26T20:53:29.162Z,100728.41
2023-11-26T20:55:55.754Z,100726.03
2023-11-26T20:58:22.128Z,100727.59
2023-11-26T21:00:50.108Z,100717.22
2023-11-26T21:03:16.617Z,100724.13
2023-11-26T21:05:42.981Z,100707.41
2023-11-26T21:08:09.511Z,100709.28
2023-11-26T21:10:35.873Z,100704.97
2023-11-26T21:13:02.974Z,100706.41
2023-11-26T21:15:32.459Z,100697.00
2023-11-26T21:17:59.359Z,100696.28
2023-11-26T21:20:26.139Z,100696.28
2023-11-26T21:22:53.185Z,100694.44
2023-11-26T21:25:19.918Z,100682.66
2023-11-26T21:27:46.839Z,100681.81
2023-11-26T21:30:13.864Z,100685.72
2023-11-26T21:32:40.749Z,100686.94
2023-11-26T21:35:07.673Z,100697.91
2023-11-26T21:37:34.120Z,100683.91
2023-11-26T21:40:00.517Z,100685.72
2023-11-26T21:42:26.907Z,100682.59
2023-11-26T21:44:53.324Z,100679.53
2023-11-26T21:47:19.675Z,100681.69
2023-11-26T21:49:46.382Z,100683.34
2023-11-26T21:52:15.201Z,100676.25
2023-11-26T21:54:41.736Z,100671.81
2023-11-26T21:57:08.151Z,100663.41
2023-11-26T21:59:36.386Z,100668.00
2023-11-26T22:02:03.250Z,100672.69
2023-11-26T22:04:29.770Z,100670.19
2023-11-26T22:06:56.240Z,100659.63
2023-11-26T22:09:22.693Z,100667.06
2023-11-26T22:11:49.042Z,100664.53
2023-11-26T22:14:16.139Z,100668.41
2023-11-26T22:16:43.888Z,100658.31
2023-11-26T22:19:11.983Z,100666.84
2023-11-26T22:21:38.376Z,100664.19
2023-11-26T22:24:07.542Z,100670.00
2023-11-26T22:26:39.295Z,100672.69
2023-11-26T22:29:05.969Z,100667.66
2023-11-26T22:31:33.509Z,100667.16
2023-11-26T22:34:02.125Z,100663.53
2023-11-26T22:36:30.749Z,100671.16
2023-11-26T22:38:58.853Z,100666.53
2023-11-26T22:41:27.822Z,100655.88
2023-11-26T22:43:55.607Z,100664.53
2023-11-26T22:46:27.236Z,100657.63
2023-11-26T22:48:55.027Z,100661.91
2023-11-26T22:51:21.971Z,100664.53
2023-11-26T22:53:48.365Z,100661.41
2023-11-26T22:56:15.705Z,100663.44
2023-11-26T22:58:43.227Z,100658.19
2023-11-26T23:01:09.788Z,100655.91
2023-11-26T23:03:36.247Z,100653.81
2023-11-26T23:06:10.292Z,100651.34
2023-11-26T23:08:36.709Z,100650.91
2023-11-26T23:11:03.745Z,100649.63
2023-11-26T23:13:31.354Z,100654.44
2023-11-26T23:15:58.100Z,100647.25
2023-11-26T23:18:25.269Z,100644.28
2023-11-26T23:20:51.636Z,100652.09
2023-11-26T23:23:27.370Z,100644.94
2023-11-26T23:26:03.230Z,100640.75
2023-11-26T23:28:29.710Z,100636.72
2023-11-26T23:30:56.111Z,100638.78
2023-11-26T23:33:22.493Z,100633.16
2023-11-26T23:35:48.991Z,100627.38
2023-11-26T23:38:15.437Z,100624.50
2023-11-26T23:40:47.399Z,100618.06
2023-11-26T23:43:17.323Z,100619.88
2023-11-26T23:45:43.873Z,100615.03
2023-11-26T23:48:10.948Z,100615.56
2023-11-26T23:50:37.326Z,100615.81
2023-11-26T23:53:03.679Z,100621.34
2023-11-26T23:55:30.453Z,100620.22
2023-11-26T23:57:59.342Z,100609.63
